Terminal Aerodrome Forecast
Issued by NWS

Current Version | Previous Version | Text Only | Print | Product List | Glossary On
Versions: 1 2 3 4 5 6 7 8 9 10 11 12 13 14 15 16 17 18 19 20 21 22 23 24 25 26
000
FTUS43 KABR 260539
TAFPIR
TAF
KPIR 260539Z 2606/2706 33011KT P6SM -SN OVC016
     FM260900 33014G21KT P6SM OVC015
     FM262000 34012G19KT P6SM BKN050
     FM270000 36008KT P6SM SCT250=

USA.gov is the U.S. government's official web portal to all federal, state and local government web resources and services.